sensor_id;sensor_type;location;lat;lon;timestamp;temperature;humidity
13796;SHT30;40911;51.552;9.874;2023-12-28T00:00:17;8.30;70.33
13796;SHT30;40911;51.552;9.874;2023-12-28T00:02:38;8.10;71.22
13796;SHT30;40911;51.552;9.874;2023-12-28T00:05:01;8.21;70.76
13796;SHT30;40911;51.552;9.874;2023-12-28T00:07:22;8.34;70.03
13796;SHT30;40911;51.552;9.874;2023-12-28T00:09:44;8.35;70.23
13796;SHT30;40911;51.552;9.874;2023-12-28T00:12:05;8.25;70.40
13796;SHT30;40911;51.552;9.874;2023-12-28T00:14:28;8.02;72.02
13796;SHT30;40911;51.552;9.874;2023-12-28T00:16:50;8.59;68.84
13796;SHT30;40911;51.552;9.874;2023-12-28T00:19:11;8.20;70.80
13796;SHT30;40911;51.552;9.874;2023-12-28T00:21:33;8.12;71.06
13796;SHT30;40911;51.552;9.874;2023-12-28T00:23:54;8.02;71.83
13796;SHT30;40911;51.552;9.874;2023-12-28T00:26:16;8.27;70.33
13796;SHT30;40911;51.552;9.874;2023-12-28T00:28:41;7.97;71.91
13796;SHT30;40911;51.552;9.874;2023-12-28T00:31:04;8.33;70.33
13796;SHT30;40911;51.552;9.874;2023-12-28T00:33:26;8.18;71.06
13796;SHT30;40911;51.552;9.874;2023-12-28T00:35:47;8.52;69.81
13796;SHT30;40911;51.552;9.874;2023-12-28T00:38:09;8.63;70.03
13796;SHT30;40911;51.552;9.874;2023-12-28T00:40:30;8.42;70.42
13796;SHT30;40911;51.552;9.874;2023-12-28T00:42:52;8.72;69.66
13796;SHT30;40911;51.552;9.874;2023-12-28T00:45:14;8.63;69.84
13796;SHT30;40911;51.552;9.874;2023-12-28T00:47:37;8.69;69.92
13796;SHT30;40911;51.552;9.874;2023-12-28T00:49:58;8.62;70.36
13796;SHT30;40911;51.552;9.874;2023-12-28T00:52:20;8.69;70.36
13796;SHT30;40911;51.552;9.874;2023-12-28T00:54:42;8.59;71.42
13796;SHT30;40911;51.552;9.874;2023-12-28T00:57:04;8.69;71.26
13796;SHT30;40911;51.552;9.874;2023-12-28T00:59:25;8.59;71.86
13796;SHT30;40911;51.552;9.874;2023-12-28T01:01:47;8.54;72.27
13796;SHT30;40911;51.552;9.874;2023-12-28T01:04:10;8.96;70.30
13796;SHT30;40911;51.552;9.874;2023-12-28T01:06:32;8.86;70.70
13796;SHT30;40911;51.552;9.874;2023-12-28T01:08:53;8.73;71.36
13796;SHT30;40911;51.552;9.874;2023-12-28T01:11:15;8.77;70.95
13796;SHT30;40911;51.552;9.874;2023-12-28T01:13:37;8.62;71.62
13796;SHT30;40911;51.552;9.874;2023-12-28T01:15:58;8.71;71.46
13796;SHT30;40911;51.552;9.874;2023-12-28T01:18:20;8.59;72.48
13796;SHT30;40911;51.552;9.874;2023-12-28T01:20:43;8.46;74.35
13796;SHT30;40911;51.552;9.874;2023-12-28T01:23:04;8.45;74.80
13796;SHT30;40911;51.552;9.874;2023-12-28T01:25:26;8.46;74.86
13796;SHT30;40911;51.552;9.874;2023-12-28T01:27:48;8.28;76.16
13796;SHT30;40911;51.552;9.874;2023-12-28T01:30:10;8.09;77.60
13796;SHT30;40911;51.552;9.874;2023-12-28T01:32:31;8.16;77.08
13796;SHT30;40911;51.552;9.874;2023-12-28T01:34:53;8.17;76.85
13796;SHT30;40911;51.552;9.874;2023-12-28T01:37:16;8.25;75.70
13796;SHT30;40911;51.552;9.874;2023-12-28T01:39:38;8.21;75.91
13796;SHT30;40911;51.552;9.874;2023-12-28T01:42:00;8.14;76.53
13796;SHT30;40911;51.552;9.874;2023-12-28T01:44:21;8.31;75.50
13796;SHT30;40911;51.552;9.874;2023-12-28T01:46:43;8.31;75.31
13796;SHT30;40911;51.552;9.874;2023-12-28T01:49:05;8.23;75.74
13796;SHT30;40911;51.552;9.874;2023-12-28T01:51:27;8.14;76.52
13796;SHT30;40911;51.552;9.874;2023-12-28T01:53:51;8.12;77.42
13796;SHT30;40911;51.552;9.874;2023-12-28T01:56:14;7.87;79.45
13796;SHT30;40911;51.552;9.874;2023-12-28T01:58:37;7.87;79.64
13796;SHT30;40911;51.552;9.874;2023-12-28T02:01:00;7.96;79.26
13796;SHT30;40911;51.552;9.874;2023-12-28T02:03:22;8.02;78.90
13796;SHT30;40911;51.552;9.874;2023-12-28T02:05:44;7.82;80.51
13796;SHT30;40911;51.552;9.874;2023-12-28T02:08:06;7.85;80.33
13796;SHT30;40911;51.552;9.874;2023-12-28T02:10:28;7.62;81.98
13796;SHT30;40911;51.552;9.874;2023-12-28T02:12:50;7.58;82.52
13796;SHT30;40911;51.552;9.874;2023-12-28T02:15:13;7.51;83.07
13796;SHT30;40911;51.552;9.874;2023-12-28T02:17:38;7.61;82.54
13796;SHT30;40911;51.552;9.874;2023-12-28T02:20:05;7.49;83.87
13796;SHT30;40911;51.552;9.874;2023-12-28T02:22:27;7.31;85.08
13796;SHT30;40911;51.552;9.874;2023-12-28T02:25:04;7.27;85.53
13796;SHT30;40911;51.552;9.874;2023-12-28T02:27:26;7.21;85.87
13796;SHT30;40911;51.552;9.874;2023-12-28T02:29:48;7.24;85.72
13796;SHT30;40911;51.552;9.874;2023-12-28T02:32:11;7.27;85.38
13796;SHT30;40911;51.552;9.874;2023-12-28T02:34:37;7.30;84.88
13796;SHT30;40911;51.552;9.874;2023-12-28T02:37:02;7.32;84.71
13796;SHT30;40911;51.552;9.874;2023-12-28T02:39:27;7.45;84.29
13796;SHT30;40911;51.552;9.874;2023-12-28T02:41:51;7.26;85.24
13796;SHT30;40911;51.552;9.874;2023-12-28T02:44:15;7.26;85.25
13796;SHT30;40911;51.552;9.874;2023-12-28T02:46:37;7.35;84.50
13796;SHT30;40911;51.552;9.874;2023-12-28T02:48:58;7.52;83.68
13796;SHT30;40911;51.552;9.874;2023-12-28T02:51:20;7.41;84.31
13796;SHT30;40911;51.552;9.874;2023-12-28T02:53:40;7.44;84.09
13796;SHT30;40911;51.552;9.874;2023-12-28T02:56:02;7.34;84.82
13796;SHT30;40911;51.552;9.874;2023-12-28T02:58:25;7.34;84.79
13796;SHT30;40911;51.552;9.874;2023-12-28T03:00:47;7.37;84.14
13796;SHT30;40911;51.552;9.874;2023-12-28T03:03:09;7.45;84.10
13796;SHT30;40911;51.552;9.874;2023-12-28T03:05:31;7.37;84.38
13796;SHT30;40911;51.552;9.874;2023-12-28T03:07:53;7.42;84.53
13796;SHT30;40911;51.552;9.874;2023-12-28T03:10:16;7.39;84.47
13796;SHT30;40911;51.552;9.874;2023-12-28T03:12:37;7.44;84.68
13796;SHT30;40911;51.552;9.874;2023-12-28T03:15:00;7.51;84.18
13796;SHT30;40911;51.552;9.874;2023-12-28T03:17:22;7.51;84.53
13796;SHT30;40911;51.552;9.874;2023-12-28T03:19:43;7.59;84.24
13796;SHT30;40911;51.552;9.874;2023-12-28T03:22:05;7.62;84.10
13796;SHT30;40911;51.552;9.874;2023-12-28T03:24:27;7.56;84.50
13796;SHT30;40911;51.552;9.874;2023-12-28T03:26:49;7.55;84.81
13796;SHT30;40911;51.552;9.874;2023-12-28T03:29:10;7.51;84.97
13796;SHT30;40911;51.552;9.874;2023-12-28T03:31:33;7.55;85.00
13796;SHT30;40911;51.552;9.874;2023-12-28T03:33:59;7.66;84.81
13796;SHT30;40911;51.552;9.874;2023-12-28T03:36:21;7.58;85.28
13796;SHT30;40911;51.552;9.874;2023-12-28T03:38:43;7.79;84.83
13796;SHT30;40911;51.552;9.874;2023-12-28T03:41:05;7.79;84.64
13796;SHT30;40911;51.552;9.874;2023-12-28T03:43:26;7.85;85.06
13796;SHT30;40911;51.552;9.874;2023-12-28T03:45:48;7.85;84.54
13796;SHT30;40911;51.552;9.874;2023-12-28T03:48:11;7.89;84.24
13796;SHT30;40911;51.552;9.874;2023-12-28T03:50:34;7.81;84.38
13796;SHT30;40911;51.552;9.874;2023-12-28T03:52:55;7.81;84.50
13796;SHT30;40911;51.552;9.874;2023-12-28T03:55:19;7.72;84.86
13796;SHT30;40911;51.552;9.874;2023-12-28T03:57:40;7.85;84.34
13796;SHT30;40911;51.552;9.874;2023-12-28T04:00:03;7.70;84.91
13796;SHT30;40911;51.552;9.874;2023-12-28T04:02:25;7.78;84.64
13796;SHT30;40911;51.552;9.874;2023-12-28T04:04:52;7.76;84.91
13796;SHT30;40911;51.552;9.874;2023-12-28T04:07:16;7.68;84.79
13796;SHT30;40911;51.552;9.874;2023-12-28T04:09:37;7.69;85.02
13796;SHT30;40911;51.552;9.874;2023-12-28T04:11:59;7.79;84.45
13796;SHT30;40911;51.552;9.874;2023-12-28T04:14:20;7.68;84.85
13796;SHT30;40911;51.552;9.874;2023-12-28T04:16:42;7.93;84.24
13796;SHT30;40911;51.552;9.874;2023-12-28T04:19:04;7.76;84.88
13796;SHT30;40911;51.552;9.874;2023-12-28T04:21:27;7.76;85.00
13796;SHT30;40911;51.552;9.874;2023-12-28T04:23:48;7.78;84.79
13796;SHT30;40911;51.552;9.874;2023-12-28T04:26:10;7.82;84.32
13796;SHT30;40911;51.552;9.874;2023-12-28T04:28:31;7.74;85.03
13796;SHT30;40911;51.552;9.874;2023-12-28T04:30:54;7.86;84.30
13796;SHT30;40911;51.552;9.874;2023-12-28T04:33:17;7.78;85.09
13796;SHT30;40911;51.552;9.874;2023-12-28T04:35:39;7.90;84.21
13796;SHT30;40911;51.552;9.874;2023-12-28T04:38:02;7.82;85.06
13796;SHT30;40911;51.552;9.874;2023-12-28T04:40:24;7.70;85.16
13796;SHT30;40911;51.552;9.874;2023-12-28T04:42:45;7.78;85.23
13796;SHT30;40911;51.552;9.874;2023-12-28T04:45:08;7.75;85.25
13796;SHT30;40911;51.552;9.874;2023-12-28T04:47:30;7.68;85.49
13796;SHT30;40911;51.552;9.874;2023-12-28T04:49:51;7.63;86.09
13796;SHT30;40911;51.552;9.874;2023-12-28T04:52:13;7.47;86.50
13796;SHT30;40911;51.552;9.874;2023-12-28T04:54:40;7.51;86.87
13796;SHT30;40911;51.552;9.874;2023-12-28T04:57:02;7.68;86.41
13796;SHT30;40911;51.552;9.874;2023-12-28T04:59:23;7.63;86.64
13796;SHT30;40911;51.552;9.874;2023-12-28T05:01:45;7.61;86.50
13796;SHT30;40911;51.552;9.874;2023-12-28T05:04:06;7.65;86.53
13796;SHT30;40911;51.552;9.874;2023-12-28T05:06:28;7.61;86.68
13796;SHT30;40911;51.552;9.874;2023-12-28T05:08:50;7.45;87.42
13796;SHT30;40911;51.552;9.874;2023-12-28T05:11:13;7.58;87.08
13796;SHT30;40911;51.552;9.874;2023-12-28T05:13:35;7.56;87.05
13796;SHT30;40911;51.552;9.874;2023-12-28T05:15:56;7.68;86.87
13796;SHT30;40911;51.552;9.874;2023-12-28T05:18:18;7.68;86.80
13796;SHT30;40911;51.552;9.874;2023-12-28T05:20:40;7.49;87.46
13796;SHT30;40911;51.552;9.874;2023-12-28T05:23:01;7.51;87.53
13796;SHT30;40911;51.552;9.874;2023-12-28T05:25:23;7.48;87.99
13796;SHT30;40911;51.552;9.874;2023-12-28T05:27:46;7.42;88.23
13796;SHT30;40911;51.552;9.874;2023-12-28T05:30:08;7.44;87.87
13796;SHT30;40911;51.552;9.874;2023-12-28T05:32:31;7.49;88.14
13796;SHT30;40911;51.552;9.874;2023-12-28T05:34:52;7.48;88.15
13796;SHT30;40911;51.552;9.874;2023-12-28T05:37:14;7.26;88.78
13796;SHT30;40911;51.552;9.874;2023-12-28T05:39:35;7.32;88.79
13796;SHT30;40911;51.552;9.874;2023-12-28T05:41:57;7.30;89.16
13796;SHT30;40911;51.552;9.874;2023-12-28T05:44:20;7.24;89.19
13796;SHT30;40911;51.552;9.874;2023-12-28T05:46:42;7.52;89.03
13796;SHT30;40911;51.552;9.874;2023-12-28T05:49:04;7.45;88.84
13796;SHT30;40911;51.552;9.874;2023-12-28T05:51:25;7.37;89.10
13796;SHT30;40911;51.552;9.874;2023-12-28T05:53:47;7.38;89.26
13796;SHT30;40911;51.552;9.874;2023-12-28T05:56:08;7.54;89.14
13796;SHT30;40911;51.552;9.874;2023-12-28T05:58:30;7.37;89.14
13796;SHT30;40911;51.552;9.874;2023-12-28T06:00:53;7.20;89.83
13796;SHT30;40911;51.552;9.874;2023-12-28T06:03:15;7.44;89.59
13796;SHT30;40911;51.552;9.874;2023-12-28T06:05:36;7.37;89.36
13796;SHT30;40911;51.552;9.874;2023-12-28T06:07:58;7.24;89.56
13796;SHT30;40911;51.552;9.874;2023-12-28T06:10:20;7.54;88.86
13796;SHT30;40911;51.552;9.874;2023-12-28T06:12:41;7.45;88.92
13796;SHT30;40911;51.552;9.874;2023-12-28T06:15:03;7.61;88.49
13796;SHT30;40911;51.552;9.874;2023-12-28T06:17:27;7.45;89.09
13796;SHT30;40911;51.552;9.874;2023-12-28T06:19:48;7.27;89.80
13796;SHT30;40911;51.552;9.874;2023-12-28T06:22:10;7.34;89.65
13796;SHT30;40911;51.552;9.874;2023-12-28T06:24:31;7.39;89.60
13796;SHT30;40911;51.552;9.874;2023-12-28T06:26:54;7.51;89.19
13796;SHT30;40911;51.552;9.874;2023-12-28T06:29:16;7.58;88.65
13796;SHT30;40911;51.552;9.874;2023-12-28T06:31:38;7.54;88.87
13796;SHT30;40911;51.552;9.874;2023-12-28T06:34:01;7.66;88.76
13796;SHT30;40911;51.552;9.874;2023-12-28T06:36:23;7.69;88.43
13796;SHT30;40911;51.552;9.874;2023-12-28T06:38:44;7.74;88.35
13796;SHT30;40911;51.552;9.874;2023-12-28T06:41:12;7.68;88.51
13796;SHT30;40911;51.552;9.874;2023-12-28T06:43:34;7.76;88.12
13796;SHT30;40911;51.552;9.874;2023-12-28T06:45:55;7.59;88.94
13796;SHT30;40911;51.552;9.874;2023-12-28T06:48:17;7.51;89.01
13796;SHT30;40911;51.552;9.874;2023-12-28T06:50:40;7.74;88.15
13796;SHT30;40911;51.552;9.874;2023-12-28T06:53:02;7.55;88.98
13796;SHT30;40911;51.552;9.874;2023-12-28T06:55:23;7.47;89.48
13796;SHT30;40911;51.552;9.874;2023-12-28T06:57:45;7.54;88.89
13796;SHT30;40911;51.552;9.874;2023-12-28T07:00:08;7.63;88.73
13796;SHT30;40911;51.552;9.874;2023-12-28T07:02:30;7.70;88.45
13796;SHT30;40911;51.552;9.874;2023-12-28T07:04:51;7.59;88.95
13796;SHT30;40911;51.552;9.874;2023-12-28T07:07:14;7.58;89.05
13796;SHT30;40911;51.552;9.874;2023-12-28T07:09:36;7.37;89.54
13796;SHT30;40911;51.552;9.874;2023-12-28T07:11:57;7.48;89.56
13796;SHT30;40911;51.552;9.874;2023-12-28T07:14:19;7.45;89.31
13796;SHT30;40911;51.552;9.874;2023-12-28T07:16:41;7.69;89.17
13796;SHT30;40911;51.552;9.874;2023-12-28T07:19:03;7.68;88.69
13796;SHT30;40911;51.552;9.874;2023-12-28T07:21:25;7.65;89.12
13796;SHT30;40911;51.552;9.874;2023-12-28T07:23:48;7.72;88.63
13796;SHT30;40911;51.552;9.874;2023-12-28T07:26:10;7.87;88.19
13796;SHT30;40911;51.552;9.874;2023-12-28T07:28:32;7.87;88.39
13796;SHT30;40911;51.552;9.874;2023-12-28T07:30:54;7.65;88.81
13796;SHT30;40911;51.552;9.874;2023-12-28T07:33:16;7.69;88.82
13796;SHT30;40911;51.552;9.874;2023-12-28T07:35:38;7.81;88.51
13796;SHT30;40911;51.552;9.874;2023-12-28T07:38:00;7.87;88.42
13796;SHT30;40911;51.552;9.874;2023-12-28T07:40:23;7.68;88.92
13796;SHT30;40911;51.552;9.874;2023-12-28T07:42:44;7.75;89.10
13796;SHT30;40911;51.552;9.874;2023-12-28T07:45:06;7.65;89.31
13796;SHT30;40911;51.552;9.874;2023-12-28T07:47:27;7.66;89.32
13796;SHT30;40911;51.552;9.874;2023-12-28T07:49:48;7.81;88.80
13796;SHT30;40911;51.552;9.874;2023-12-28T07:52:10;7.79;88.85
13796;SHT30;40911;51.552;9.874;2023-12-28T07:54:32;7.62;89.62
13796;SHT30;40911;51.552;9.874;2023-12-28T07:56:55;7.66;89.53
13796;SHT30;40911;51.552;9.874;2023-12-28T07:59:16;7.81;89.08
13796;SHT30;40911;51.552;9.874;2023-12-28T08:01:38;7.90;89.08
13796;SHT30;40911;51.552;9.874;2023-12-28T08:03:59;7.75;89.26
13796;SHT30;40911;51.552;9.874;2023-12-28T08:06:22;7.81;89.14
13796;SHT30;40911;51.552;9.874;2023-12-28T08:08:43;7.63;89.84
13796;SHT30;40911;51.552;9.874;2023-12-28T08:11:05;7.74;89.57
13796;SHT30;40911;51.552;9.874;2023-12-28T08:13:28;7.78;89.53
13796;SHT30;40911;51.552;9.874;2023-12-28T08:15:49;7.74;89.62
13796;SHT30;40911;51.552;9.874;2023-12-28T08:18:11;7.83;89.41
13796;SHT30;40911;51.552;9.874;2023-12-28T08:20:33;7.86;89.53
13796;SHT30;40911;51.552;9.874;2023-12-28T08:22:54;7.96;89.38
13796;SHT30;40911;51.552;9.874;2023-12-28T08:25:16;7.90;89.45
13796;SHT30;40911;51.552;9.874;2023-12-28T08:27:39;7.86;89.47
13796;SHT30;40911;51.552;9.874;2023-12-28T08:30:03;7.83;89.95
13796;SHT30;40911;51.552;9.874;2023-12-28T08:32:25;7.81;89.56
13796;SHT30;40911;51.552;9.874;2023-12-28T08:34:46;7.95;89.30
13796;SHT30;40911;51.552;9.874;2023-12-28T08:37:09;7.83;89.83
13796;SHT30;40911;51.552;9.874;2023-12-28T08:39:31;7.86;89.63
13796;SHT30;40911;51.552;9.874;2023-12-28T08:41:56;7.83;89.77
13796;SHT30;40911;51.552;9.874;2023-12-28T08:44:17;7.93;89.32
13796;SHT30;40911;51.552;9.874;2023-12-28T08:46:40;7.86;89.69
13796;SHT30;40911;51.552;9.874;2023-12-28T08:49:02;7.85;89.72
13796;SHT30;40911;51.552;9.874;2023-12-28T08:51:24;7.81;89.99
13796;SHT30;40911;51.552;9.874;2023-12-28T08:53:46;7.76;89.84
13796;SHT30;40911;51.552;9.874;2023-12-28T08:56:16;7.66;90.64
13796;SHT30;40911;51.552;9.874;2023-12-28T08:58:38;7.93;89.48
13796;SHT30;40911;51.552;9.874;2023-12-28T09:01:08;7.82;89.75
13796;SHT30;40911;51.552;9.874;2023-12-28T09:03:31;7.86;90.15
13796;SHT30;40911;51.552;9.874;2023-12-28T09:05:52;8.04;89.33
13796;SHT30;40911;51.552;9.874;2023-12-28T09:08:14;8.14;89.05
13796;SHT30;40911;51.552;9.874;2023-12-28T09:10:36;8.14;89.29
13796;SHT30;40911;51.552;9.874;2023-12-28T09:12:57;8.25;88.82
13796;SHT30;40911;51.552;9.874;2023-12-28T09:15:19;8.33;88.66
13796;SHT30;40911;51.552;9.874;2023-12-28T09:17:40;8.46;88.33
13796;SHT30;40911;51.552;9.874;2023-12-28T09:20:05;8.59;87.82
13796;SHT30;40911;51.552;9.874;2023-12-28T09:22:27;8.58;87.97
13796;SHT30;40911;51.552;9.874;2023-12-28T09:24:49;8.55;88.00
13796;SHT30;40911;51.552;9.874;2023-12-28T09:27:10;8.69;87.53
13796;SHT30;40911;51.552;9.874;2023-12-28T09:29:32;8.83;87.03
13796;SHT30;40911;51.552;9.874;2023-12-28T09:31:55;8.88;87.02
13796;SHT30;40911;51.552;9.874;2023-12-28T09:34:16;8.75;87.55
13796;SHT30;40911;51.552;9.874;2023-12-28T09:36:39;8.93;86.74
13796;SHT30;40911;51.552;9.874;2023-12-28T09:39:01;9.06;87.23
13796;SHT30;40911;51.552;9.874;2023-12-28T09:41:26;9.14;86.46
13796;SHT30;40911;51.552;9.874;2023-12-28T09:43:53;9.23;86.24
13796;SHT30;40911;51.552;9.874;2023-12-28T09:46:14;9.35;86.04
13796;SHT30;40911;51.552;9.874;2023-12-28T09:48:37;9.34;86.09
13796;SHT30;40911;51.552;9.874;2023-12-28T09:50:59;9.24;85.91
13796;SHT30;40911;51.552;9.874;2023-12-28T09:53:22;9.37;85.79
13796;SHT30;40911;51.552;9.874;2023-12-28T09:55:45;9.49;86.08
13796;SHT30;40911;51.552;9.874;2023-12-28T09:58:07;9.58;85.70
13796;SHT30;40911;51.552;9.874;2023-12-28T10:00:29;9.54;85.44
13796;SHT30;40911;51.552;9.874;2023-12-28T10:02:50;9.59;85.71
13796;SHT30;40911;51.552;9.874;2023-12-28T10:05:12;9.62;85.18
13796;SHT30;40911;51.552;9.874;2023-12-28T10:07:40;9.89;84.86
13796;SHT30;40911;51.552;9.874;2023-12-28T10:10:05;9.76;84.82
13796;SHT30;40911;51.552;9.874;2023-12-28T10:12:27;9.83;84.50
13796;SHT30;40911;51.552;9.874;2023-12-28T10:14:50;9.85;84.07
13796;SHT30;40911;51.552;9.874;2023-12-28T10:17:11;9.66;84.87
13796;SHT30;40911;51.552;9.874;2023-12-28T10:19:33;9.70;85.22
13796;SHT30;40911;51.552;9.874;2023-12-28T10:21:54;9.66;85.40
13796;SHT30;40911;51.552;9.874;2023-12-28T10:24:16;9.75;84.74
13796;SHT30;40911;51.552;9.874;2023-12-28T10:26:39;9.90;84.80
13796;SHT30;40911;51.552;9.874;2023-12-28T10:29:01;9.89;84.73
13796;SHT30;40911;51.552;9.874;2023-12-28T10:31:23;9.88;84.20
13796;SHT30;40911;51.552;9.874;2023-12-28T10:33:45;9.83;84.31
13796;SHT30;40911;51.552;9.874;2023-12-28T10:36:08;10.07;84.58
13796;SHT30;40911;51.552;9.874;2023-12-28T10:38:34;9.88;84.24
13796;SHT30;40911;51.552;9.874;2023-12-28T10:40:56;10.02;84.32
13796;SHT30;40911;51.552;9.874;2023-12-28T10:43:19;9.89;84.02
13796;SHT30;40911;51.552;9.874;2023-12-28T10:45:47;10.07;84.26
13796;SHT30;40911;51.552;9.874;2023-12-28T10:48:12;9.88;84.07
13796;SHT30;40911;51.552;9.874;2023-12-28T10:50:38;9.95;84.62
13796;SHT30;40911;51.552;9.874;2023-12-28T10:53:18;9.90;84.07
13796;SHT30;40911;51.552;9.874;2023-12-28T10:55:50;9.86;84.06
13796;SHT30;40911;51.552;9.874;2023-12-28T10:58:21;9.93;84.52
13796;SHT30;40911;51.552;9.874;2023-12-28T11:00:49;9.92;84.13
13796;SHT30;40911;51.552;9.874;2023-12-28T11:03:18;9.90;84.33
13796;SHT30;40911;51.552;9.874;2023-12-28T11:05:43;9.93;84.53
13796;SHT30;40911;51.552;9.874;2023-12-28T11:08:07;9.88;84.43
13796;SHT30;40911;51.552;9.874;2023-12-28T11:10:29;9.92;84.75
13796;SHT30;40911;51.552;9.874;2023-12-28T11:12:51;9.83;84.76
13796;SHT30;40911;51.552;9.874;2023-12-28T11:15:16;9.88;83.99
13796;SHT30;40911;51.552;9.874;2023-12-28T11:17:39;9.88;84.30
13796;SHT30;40911;51.552;9.874;2023-12-28T11:20:00;9.88;84.21
13796;SHT30;40911;51.552;9.874;2023-12-28T11:22:23;9.89;84.40
13796;SHT30;40911;51.552;9.874;2023-12-28T11:24:46;9.96;83.72
13796;SHT30;40911;51.552;9.874;2023-12-28T11:27:07;9.89;83.87
13796;SHT30;40911;51.552;9.874;2023-12-28T11:29:30;9.95;83.27
13796;SHT30;40911;51.552;9.874;2023-12-28T11:31:54;9.96;83.45
13796;SHT30;40911;51.552;9.874;2023-12-28T11:34:16;9.99;83.70
13796;SHT30;40911;51.552;9.874;2023-12-28T11:36:38;9.93;83.58
13796;SHT30;40911;51.552;9.874;2023-12-28T11:39:04;9.90;83.47
13796;SHT30;40911;51.552;9.874;2023-12-28T11:41:26;9.95;83.56
13796;SHT30;40911;51.552;9.874;2023-12-28T11:43:51;9.97;83.17
13796;SHT30;40911;51.552;9.874;2023-12-28T11:46:13;9.92;83.31
13796;SHT30;40911;51.552;9.874;2023-12-28T11:48:36;9.90;83.53
13796;SHT30;40911;51.552;9.874;2023-12-28T11:50:59;9.88;83.40
13796;SHT30;40911;51.552;9.874;2023-12-28T11:53:22;9.95;82.99
13796;SHT30;40911;51.552;9.874;2023-12-28T11:55:43;9.95;83.26
13796;SHT30;40911;51.552;9.874;2023-12-28T11:58:05;9.97;82.95
13796;SHT30;40911;51.552;9.874;2023-12-28T12:00:26;10.05;83.09
13796;SHT30;40911;51.552;9.874;2023-12-28T12:02:48;10.05;83.13
13796;SHT30;40911;51.552;9.874;2023-12-28T12:05:11;9.99;82.87
13796;SHT30;40911;51.552;9.874;2023-12-28T12:07:33;10.09;83.04
13796;SHT30;40911;51.552;9.874;2023-12-28T12:09:55;10.07;82.41
13796;SHT30;40911;51.552;9.874;2023-12-28T12:12:17;10.13;82.53
13796;SHT30;40911;51.552;9.874;2023-12-28T12:14:39;10.18;82.80
13796;SHT30;40911;51.552;9.874;2023-12-28T12:17:01;10.16;82.68
13796;SHT30;40911;51.552;9.874;2023-12-28T12:19:23;10.12;82.65
13796;SHT30;40911;51.552;9.874;2023-12-28T12:21:48;10.23;82.78
13796;SHT30;40911;51.552;9.874;2023-12-28T12:24:10;10.21;82.34
13796;SHT30;40911;51.552;9.874;2023-12-28T12:26:32;10.14;82.85
13796;SHT30;40911;51.552;9.874;2023-12-28T12:28:56;10.20;82.36
13796;SHT30;40911;51.552;9.874;2023-12-28T12:31:18;10.24;82.41
13796;SHT30;40911;51.552;9.874;2023-12-28T12:33:41;10.23;82.05
13796;SHT30;40911;51.552;9.874;2023-12-28T12:36:04;10.21;82.49
13796;SHT30;40911;51.552;9.874;2023-12-28T12:38:28;10.27;81.60
13796;SHT30;40911;51.552;9.874;2023-12-28T12:40:50;10.17;82.69
13796;SHT30;40911;51.552;9.874;2023-12-28T12:43:13;10.31;81.77
13796;SHT30;40911;51.552;9.874;2023-12-28T12:45:35;10.18;82.33
13796;SHT30;40911;51.552;9.874;2023-12-28T12:47:57;10.26;81.96
13796;SHT30;40911;51.552;9.874;2023-12-28T12:50:19;10.23;81.98
13796;SHT30;40911;51.552;9.874;2023-12-28T12:52:41;10.23;82.59
13796;SHT30;40911;51.552;9.874;2023-12-28T12:55:06;10.18;82.49
13796;SHT30;40911;51.552;9.874;2023-12-28T12:57:31;10.23;82.22
13796;SHT30;40911;51.552;9.874;2023-12-28T12:59:53;10.20;82.47
13796;SHT30;40911;51.552;9.874;2023-12-28T13:02:15;10.26;82.08
13796;SHT30;40911;51.552;9.874;2023-12-28T13:04:37;10.26;82.52
13796;SHT30;40911;51.552;9.874;2023-12-28T13:06:59;10.31;82.11
13796;SHT30;40911;51.552;9.874;2023-12-28T13:09:21;10.23;82.40
13796;SHT30;40911;51.552;9.874;2023-12-28T13:11:44;10.26;81.97
13796;SHT30;40911;51.552;9.874;2023-12-28T13:14:09;10.28;82.18
13796;SHT30;40911;51.552;9.874;2023-12-28T13:16:31;10.24;82.12
13796;SHT30;40911;51.552;9.874;2023-12-28T13:18:52;10.27;81.93
13796;SHT30;40911;51.552;9.874;2023-12-28T13:21:14;10.23;82.08
13796;SHT30;40911;51.552;9.874;2023-12-28T13:23:36;10.17;82.77
13796;SHT30;40911;51.552;9.874;2023-12-28T13:25:57;10.18;82.48
13796;SHT30;40911;51.552;9.874;2023-12-28T13:28:20;10.12;82.98
13796;SHT30;40911;51.552;9.874;2023-12-28T13:30:42;10.18;82.65
13796;SHT30;40911;51.552;9.874;2023-12-28T13:33:04;10.07;83.31
13796;SHT30;40911;51.552;9.874;2023-12-28T13:35:26;10.17;82.81
13796;SHT30;40911;51.552;9.874;2023-12-28T13:37:47;10.20;82.78
13796;SHT30;40911;51.552;9.874;2023-12-28T13:40:10;10.16;82.65
13796;SHT30;40911;51.552;9.874;2023-12-28T13:42:31;10.23;81.94
13796;SHT30;40911;51.552;9.874;2023-12-28T13:44:54;10.18;82.49
13796;SHT30;40911;51.552;9.874;2023-12-28T13:47:16;10.14;82.57
13796;SHT30;40911;51.552;9.874;2023-12-28T13:49:37;10.09;82.57
13796;SHT30;40911;51.552;9.874;2023-12-28T13:51:58;10.03;83.13
13796;SHT30;40911;51.552;9.874;2023-12-28T13:54:20;10.05;82.86
13796;SHT30;40911;51.552;9.874;2023-12-28T13:56:42;9.97;83.13
13796;SHT30;40911;51.552;9.874;2023-12-28T13:59:05;9.96;83.00
13796;SHT30;40911;51.552;9.874;2023-12-28T14:01:28;10.02;82.27
13796;SHT30;40911;51.552;9.874;2023-12-28T14:03:50;9.93;82.78
13796;SHT30;40911;51.552;9.874;2023-12-28T14:06:12;9.93;82.67
13796;SHT30;40911;51.552;9.874;2023-12-28T14:08:34;9.88;82.86
13796;SHT30;40911;51.552;9.874;2023-12-28T14:10:56;9.78;83.14
13796;SHT30;40911;51.552;9.874;2023-12-28T14:13:18;9.83;82.75
13796;SHT30;40911;51.552;9.874;2023-12-28T14:15:41;9.82;82.74
13796;SHT30;40911;51.552;9.874;2023-12-28T14:18:04;9.76;83.08
13796;SHT30;40911;51.552;9.874;2023-12-28T14:20:26;9.96;82.02
13796;SHT30;40911;51.552;9.874;2023-12-28T14:22:49;9.70;83.03
13796;SHT30;40911;51.552;9.874;2023-12-28T14:25:12;9.78;82.53
13796;SHT30;40911;51.552;9.874;2023-12-28T14:27:34;9.73;82.62
13796;SHT30;40911;51.552;9.874;2023-12-28T14:29:56;9.79;82.25
13796;SHT30;40911;51.552;9.874;2023-12-28T14:32:19;9.55;83.25
13796;SHT30;40911;51.552;9.874;2023-12-28T14:34:43;9.78;81.99
13796;SHT30;40911;51.552;9.874;2023-12-28T14:37:05;9.81;81.68
13796;SHT30;40911;51.552;9.874;2023-12-28T14:39:28;9.63;82.23
13796;SHT30;40911;51.552;9.874;2023-12-28T14:41:50;9.66;82.38
13796;SHT30;40911;51.552;9.874;2023-12-28T14:44:11;9.58;82.40
13796;SHT30;40911;51.552;9.874;2023-12-28T14:46:33;9.63;82.00
13796;SHT30;40911;51.552;9.874;2023-12-28T14:48:56;9.59;82.28
13796;SHT30;40911;51.552;9.874;2023-12-28T14:51:19;9.54;82.18
13796;SHT30;40911;51.552;9.874;2023-12-28T14:53:41;9.55;82.01
13796;SHT30;40911;51.552;9.874;2023-12-28T14:56:03;9.34;82.73
13796;SHT30;40911;51.552;9.874;2023-12-28T14:58:25;9.32;82.50
13796;SHT30;40911;51.552;9.874;2023-12-28T15:00:46;9.23;82.84
13796;SHT30;40911;51.552;9.874;2023-12-28T15:03:08;9.37;82.20
13796;SHT30;40911;51.552;9.874;2023-12-28T15:05:29;9.28;82.38
13796;SHT30;40911;51.552;9.874;2023-12-28T15:07:52;9.35;81.73
13796;SHT30;40911;51.552;9.874;2023-12-28T15:10:15;9.28;82.11
13796;SHT30;40911;51.552;9.874;2023-12-28T15:12:37;9.52;81.11